sensor_id;sensor_type;location;lat;lon;timestamp;pressure;altitude;pressure_sealevel;temperature;humidity
72262;BME280;60173;52.112;8.648;2023-09-19T00:00:07;99657.41;;;15.02;100.00
72262;BME280;60173;52.112;8.648;2023-09-19T00:02:33;99648.13;;;15.07;100.00
72262;BME280;60173;52.112;8.648;2023-09-19T00:05:00;99661.09;;;15.10;100.00
72262;BME280;60173;52.112;8.648;2023-09-19T00:07:26;99654.75;;;15.06;100.00
72262;BME280;60173;52.112;8.648;2023-09-19T00:09:52;99649.75;;;15.08;100.00
72262;BME280;60173;52.112;8.648;2023-09-19T00:12:19;99661.16;;;14.98;100.00
72262;BME280;60173;52.112;8.648;2023-09-19T00:14:45;99664.03;;;14.89;100.00
72262;BME280;60173;52.112;8.648;2023-09-19T00:17:11;99659.22;;;14.98;100.00
72262;BME280;60173;52.112;8.648;2023-09-19T00:19:38;99669.06;;;15.15;100.00
72262;BME280;60173;52.112;8.648;2023-09-19T00:22:05;99668.44;;;15.06;100.00
72262;BME280;60173;52.112;8.648;2023-09-19T00:24:31;99672.72;;;15.19;100.00
72262;BME280;60173;52.112;8.648;2023-09-19T00:26:57;99676.41;;;15.11;100.00
72262;BME280;60173;52.112;8.648;2023-09-19T00:29:25;99681.31;;;15.05;100.00
72262;BME280;60173;52.112;8.648;2023-09-19T00:31:51;99687.34;;;15.11;100.00
72262;BME280;60173;52.112;8.648;2023-09-19T00:34:18;99676.72;;;15.09;100.00
72262;BME280;60173;52.112;8.648;2023-09-19T00:36:44;99692.34;;;15.09;100.00
72262;BME280;60173;52.112;8.648;2023-09-19T00:39:10;99698.50;;;15.06;100.00
72262;BME280;60173;52.112;8.648;2023-09-19T00:41:37;99691.88;;;15.19;100.00
72262;BME280;60173;52.112;8.648;2023-09-19T00:44:03;99698.22;;;15.23;100.00
72262;BME280;60173;52.112;8.648;2023-09-19T00:46:31;99697.22;;;15.15;100.00
72262;BME280;60173;52.112;8.648;2023-09-19T00:48:58;99696.53;;;15.19;100.00
72262;BME280;60173;52.112;8.648;2023-09-19T00:51:25;99697.47;;;15.38;100.00
72262;BME280;60173;52.112;8.648;2023-09-19T00:53:52;99698.94;;;15.48;100.00
72262;BME280;60173;52.112;8.648;2023-09-19T00:56:20;99701.03;;;15.39;100.00
72262;BME280;60173;52.112;8.648;2023-09-19T00:58:47;99702.75;;;15.59;100.00
72262;BME280;60173;52.112;8.648;2023-09-19T01:01:14;99714.81;;;15.43;100.00
72262;BME280;60173;52.112;8.648;2023-09-19T01:03:41;99714.03;;;15.58;100.00
72262;BME280;60173;52.112;8.648;2023-09-19T01:06:08;99718.41;;;15.47;100.00
72262;BME280;60173;52.112;8.648;2023-09-19T01:08:35;99724.19;;;15.57;100.00
72262;BME280;60173;52.112;8.648;2023-09-19T01:16:35;99729.38;;;15.47;99.64
72262;BME280;60173;52.112;8.648;2023-09-19T01:27:53;99733.56;;;15.28;99.39
72262;BME280;60173;52.112;8.648;2023-09-19T01:30:32;99732.16;;;15.34;98.88
72262;BME280;60173;52.112;8.648;2023-09-19T01:33:01;99733.75;;;15.35;99.37
72262;BME280;60173;52.112;8.648;2023-09-19T01:35:28;99739.84;;;15.45;98.40
72262;BME280;60173;52.112;8.648;2023-09-19T01:37:54;99740.41;;;15.22;98.58
72262;BME280;60173;52.112;8.648;2023-09-19T01:40:21;99744.53;;;15.16;99.12
72262;BME280;60173;52.112;8.648;2023-09-19T01:51:33;99757.50;;;15.19;94.07
72262;BME280;60173;52.112;8.648;2023-09-19T01:54:03;99761.78;;;15.32;93.06
72262;BME280;60173;52.112;8.648;2023-09-19T01:56:36;99756.63;;;15.43;92.34
72262;BME280;60173;52.112;8.648;2023-09-19T01:59:08;99761.09;;;15.35;91.72
72262;BME280;60173;52.112;8.648;2023-09-19T02:01:37;99761.09;;;15.35;92.36
72262;BME280;60173;52.112;8.648;2023-09-19T02:04:04;99765.41;;;15.49;90.67
72262;BME280;60173;52.112;8.648;2023-09-19T02:06:31;99758.59;;;15.43;90.82
72262;BME280;60173;52.112;8.648;2023-09-19T02:08:58;99768.97;;;15.37;90.10
72262;BME280;60173;52.112;8.648;2023-09-19T02:11:25;99767.97;;;15.29;89.82
72262;BME280;60173;52.112;8.648;2023-09-19T02:13:51;99767.81;;;15.38;89.71
72262;BME280;60173;52.112;8.648;2023-09-19T02:16:18;99782.34;;;15.26;89.75
72262;BME280;60173;52.112;8.648;2023-09-19T02:18:45;99777.31;;;15.28;90.00
72262;BME280;60173;52.112;8.648;2023-09-19T02:21:11;99778.47;;;15.15;89.52
72262;BME280;60173;52.112;8.648;2023-09-19T02:23:37;99772.81;;;15.08;89.26
72262;BME280;60173;52.112;8.648;2023-09-19T02:26:04;99773.44;;;15.29;89.42
72262;BME280;60173;52.112;8.648;2023-09-19T02:28:30;99779.59;;;15.26;90.46
72262;BME280;60173;52.112;8.648;2023-09-19T02:30:58;99777.72;;;15.43;89.43
72262;BME280;60173;52.112;8.648;2023-09-19T02:33:24;99779.91;;;15.37;89.57
72262;BME280;60173;52.112;8.648;2023-09-19T02:35:55;99782.13;;;15.19;89.95
72262;BME280;60173;52.112;8.648;2023-09-19T02:38:21;99776.78;;;15.10;90.75
72262;BME280;60173;52.112;8.648;2023-09-19T02:40:48;99781.88;;;15.24;90.74
72262;BME280;60173;52.112;8.648;2023-09-19T02:43:14;99783.78;;;15.36;89.77
72262;BME280;60173;52.112;8.648;2023-09-19T02:45:41;99782.38;;;15.14;90.95
72262;BME280;60173;52.112;8.648;2023-09-19T02:48:07;99782.56;;;15.21;90.91
72262;BME280;60173;52.112;8.648;2023-09-19T02:50:34;99781.31;;;15.31;89.80
72262;BME280;60173;52.112;8.648;2023-09-19T02:53:00;99786.88;;;15.34;89.16
72262;BME280;60173;52.112;8.648;2023-09-19T02:55:27;99780.22;;;15.48;88.21
72262;BME280;60173;52.112;8.648;2023-09-19T02:57:53;99791.84;;;15.45;87.80
72262;BME280;60173;52.112;8.648;2023-09-19T03:00:21;99784.78;;;15.44;88.03
72262;BME280;60173;52.112;8.648;2023-09-19T03:02:49;99788.03;;;15.21;88.14
72262;BME280;60173;52.112;8.648;2023-09-19T03:05:15;99801.59;;;15.18;88.80
72262;BME280;60173;52.112;8.648;2023-09-19T03:07:42;99799.31;;;15.32;87.92
72262;BME280;60173;52.112;8.648;2023-09-19T03:10:09;99798.06;;;15.29;88.40
72262;BME280;60173;52.112;8.648;2023-09-19T03:12:35;99803.44;;;15.26;89.04
72262;BME280;60173;52.112;8.648;2023-09-19T03:15:02;99797.19;;;15.13;90.00
72262;BME280;60173;52.112;8.648;2023-09-19T03:17:29;99809.25;;;15.12;90.78
72262;BME280;60173;52.112;8.648;2023-09-19T03:19:56;99809.06;;;15.05;91.32
72262;BME280;60173;52.112;8.648;2023-09-19T03:22:22;99807.09;;;15.05;92.15
72262;BME280;60173;52.112;8.648;2023-09-19T03:24:48;99814.06;;;15.03;92.47
72262;BME280;60173;52.112;8.648;2023-09-19T03:27:15;99819.19;;;15.04;92.85
72262;BME280;60173;52.112;8.648;2023-09-19T03:29:42;99822.03;;;15.08;92.79
72262;BME280;60173;52.112;8.648;2023-09-19T03:32:08;99814.94;;;15.07;92.49
72262;BME280;60173;52.112;8.648;2023-09-19T03:34:36;99814.38;;;15.01;92.62
72262;BME280;60173;52.112;8.648;2023-09-19T03:37:03;99807.00;;;14.77;92.83
72262;BME280;60173;52.112;8.648;2023-09-19T03:39:29;99819.53;;;14.78;93.16
72262;BME280;60173;52.112;8.648;2023-09-19T03:41:56;99819.09;;;14.76;93.03
72262;BME280;60173;52.112;8.648;2023-09-19T03:44:22;99812.94;;;14.79;92.70
72262;BME280;60173;52.112;8.648;2023-09-19T03:46:48;99816.19;;;15.09;92.13
72262;BME280;60173;52.112;8.648;2023-09-19T03:49:15;99821.31;;;15.23;90.45
72262;BME280;60173;52.112;8.648;2023-09-19T03:51:41;99817.94;;;15.02;90.43
72262;BME280;60173;52.112;8.648;2023-09-19T03:54:08;99812.22;;;14.95;90.91
72262;BME280;60173;52.112;8.648;2023-09-19T03:56:34;99821.34;;;14.86;91.91
72262;BME280;60173;52.112;8.648;2023-09-19T03:59:01;99820.22;;;15.00;90.95
72262;BME280;60173;52.112;8.648;2023-09-19T04:01:27;99818.63;;;14.86;90.76
72262;BME280;60173;52.112;8.648;2023-09-19T04:03:53;99820.09;;;14.84;90.64
72262;BME280;60173;52.112;8.648;2023-09-19T04:06:20;99819.78;;;14.73;90.88
72262;BME280;60173;52.112;8.648;2023-09-19T04:08:46;99822.28;;;14.78;90.47
72262;BME280;60173;52.112;8.648;2023-09-19T04:11:13;99834.78;;;14.67;90.96
72262;BME280;60173;52.112;8.648;2023-09-19T04:13:40;99829.78;;;14.69;90.59
72262;BME280;60173;52.112;8.648;2023-09-19T04:16:06;99826.03;;;14.74;90.42
72262;BME280;60173;52.112;8.648;2023-09-19T04:18:33;99824.97;;;14.54;90.62
72262;BME280;60173;52.112;8.648;2023-09-19T04:20:59;99820.84;;;14.47;91.56
72262;BME280;60173;52.112;8.648;2023-09-19T04:23:26;99830.22;;;14.71;90.12
72262;BME280;60173;52.112;8.648;2023-09-19T04:25:52;99845.28;;;14.77;89.54
72262;BME280;60173;52.112;8.648;2023-09-19T04:28:19;99847.69;;;14.79;88.88
72262;BME280;60173;52.112;8.648;2023-09-19T04:30:45;99857.94;;;14.82;88.60
72262;BME280;60173;52.112;8.648;2023-09-19T04:33:12;99844.00;;;14.62;88.59
72262;BME280;60173;52.112;8.648;2023-09-19T04:35:38;99852.00;;;14.34;88.75
72262;BME280;60173;52.112;8.648;2023-09-19T04:38:04;99858.13;;;14.19;89.93
72262;BME280;60173;52.112;8.648;2023-09-19T04:40:31;99866.78;;;14.21;89.61
72262;BME280;60173;52.112;8.648;2023-09-19T04:42:57;99871.13;;;14.34;89.04
72262;BME280;60173;52.112;8.648;2023-09-19T04:45:27;99880.25;;;14.38;88.28
72262;BME280;60173;52.112;8.648;2023-09-19T04:47:54;99875.91;;;14.37;88.49
72262;BME280;60173;52.112;8.648;2023-09-19T04:50:21;99871.00;;;14.31;88.30
72262;BME280;60173;52.112;8.648;2023-09-19T04:52:50;99870.53;;;14.29;88.64
72262;BME280;60173;52.112;8.648;2023-09-19T04:55:18;99881.97;;;14.10;88.81
72262;BME280;60173;52.112;8.648;2023-09-19T04:57:48;99896.50;;;14.01;89.27
72262;BME280;60173;52.112;8.648;2023-09-19T05:00:17;99897.94;;;14.20;88.74
72262;BME280;60173;52.112;8.648;2023-09-19T05:02:44;99899.00;;;14.28;88.94
72262;BME280;60173;52.112;8.648;2023-09-19T05:05:11;99901.13;;;14.22;88.76
72262;BME280;60173;52.112;8.648;2023-09-19T05:07:41;99902.03;;;14.26;88.09
72262;BME280;60173;52.112;8.648;2023-09-19T05:10:08;99900.13;;;14.27;88.55
72262;BME280;60173;52.112;8.648;2023-09-19T05:12:35;99897.16;;;13.98;88.85
72262;BME280;60173;52.112;8.648;2023-09-19T05:15:06;99901.97;;;14.01;89.02
72262;BME280;60173;52.112;8.648;2023-09-19T05:17:33;99899.72;;;14.04;88.25
72262;BME280;60173;52.112;8.648;2023-09-19T05:20:03;99893.09;;;14.05;88.62
72262;BME280;60173;52.112;8.648;2023-09-19T05:22:29;99896.84;;;13.79;88.54
72262;BME280;60173;52.112;8.648;2023-09-19T05:24:56;99912.16;;;13.71;88.55
72262;BME280;60173;52.112;8.648;2023-09-19T05:27:22;99918.06;;;13.52;90.41
72262;BME280;60173;52.112;8.648;2023-09-19T05:29:49;99930.13;;;13.51;90.03
72262;BME280;60173;52.112;8.648;2023-09-19T05:32:15;99935.34;;;13.56;90.25
72262;BME280;60173;52.112;8.648;2023-09-19T05:34:41;99942.19;;;13.71;89.21
72262;BME280;60173;52.112;8.648;2023-09-19T05:37:08;99943.44;;;13.74;88.44
72262;BME280;60173;52.112;8.648;2023-09-19T05:39:34;99940.56;;;13.70;88.54
72262;BME280;60173;52.112;8.648;2023-09-19T05:42:01;99946.75;;;13.59;89.39
72262;BME280;60173;52.112;8.648;2023-09-19T05:44:27;99958.28;;;13.64;89.10
72262;BME280;60173;52.112;8.648;2023-09-19T05:46:54;99953.53;;;13.52;89.39
72262;BME280;60173;52.112;8.648;2023-09-19T05:49:20;99958.41;;;13.68;89.07
72262;BME280;60173;52.112;8.648;2023-09-19T05:51:46;99958.41;;;13.68;89.05
72262;BME280;60173;52.112;8.648;2023-09-19T05:54:13;99964.53;;;13.65;88.95
72262;BME280;60173;52.112;8.648;2023-09-19T05:56:39;99965.72;;;13.76;88.72
72262;BME280;60173;52.112;8.648;2023-09-19T05:59:06;99966.81;;;13.84;88.57
72262;BME280;60173;52.112;8.648;2023-09-19T06:01:32;99972.28;;;13.84;88.16
72262;BME280;60173;52.112;8.648;2023-09-19T06:03:58;99967.88;;;13.91;87.83
72262;BME280;60173;52.112;8.648;2023-09-19T06:06:25;99972.41;;;13.87;87.42
72262;BME280;60173;52.112;8.648;2023-09-19T06:08:52;99967.88;;;13.91;87.29
72262;BME280;60173;52.112;8.648;2023-09-19T06:11:18;99964.88;;;13.84;86.95
72262;BME280;60173;52.112;8.648;2023-09-19T06:13:45;99965.59;;;13.72;87.04
72262;BME280;60173;52.112;8.648;2023-09-19T06:16:11;99963.75;;;13.85;87.51
72262;BME280;60173;52.112;8.648;2023-09-19T06:18:37;99957.63;;;13.88;86.21
72262;BME280;60173;52.112;8.648;2023-09-19T06:21:04;99957.50;;;13.85;85.89
72262;BME280;60173;52.112;8.648;2023-09-19T06:23:30;99944.97;;;14.05;85.24
72262;BME280;60173;52.112;8.648;2023-09-19T06:25:57;99951.75;;;14.19;84.72
72262;BME280;60173;52.112;8.648;2023-09-19T06:28:23;99946.06;;;14.12;83.18
72262;BME280;60173;52.112;8.648;2023-09-19T06:30:50;99957.03;;;14.24;83.62
72262;BME280;60173;52.112;8.648;2023-09-19T06:33:16;99961.34;;;14.46;82.29
72262;BME280;60173;52.112;8.648;2023-09-19T06:35:45;99959.56;;;14.96;80.66
72262;BME280;60173;52.112;8.648;2023-09-19T06:38:11;99958.56;;;15.25;79.28
72262;BME280;60173;52.112;8.648;2023-09-19T06:40:37;99947.16;;;15.23;78.79
72262;BME280;60173;52.112;8.648;2023-09-19T06:43:04;99951.25;;;15.29;78.77
72262;BME280;60173;52.112;8.648;2023-09-19T06:45:31;99961.41;;;15.17;78.66
72262;BME280;60173;52.112;8.648;2023-09-19T06:47:57;99969.28;;;15.43;78.20
72262;BME280;60173;52.112;8.648;2023-09-19T06:50:25;99959.13;;;15.43;77.26
72262;BME280;60173;52.112;8.648;2023-09-19T06:52:53;99967.31;;;15.55;76.24
72262;BME280;60173;52.112;8.648;2023-09-19T06:55:21;99966.88;;;15.66;75.92
72262;BME280;60173;52.112;8.648;2023-09-19T06:57:48;99967.44;;;15.59;75.46
72262;BME280;60173;52.112;8.648;2023-09-19T07:00:15;99972.69;;;15.52;76.21
72262;BME280;60173;52.112;8.648;2023-09-19T07:02:42;99967.91;;;15.36;76.11
72262;BME280;60173;52.112;8.648;2023-09-19T07:05:09;99970.19;;;15.22;76.66
72262;BME280;60173;52.112;8.648;2023-09-19T07:07:35;99972.34;;;15.41;76.68
72262;BME280;60173;52.112;8.648;2023-09-19T07:10:03;99989.34;;;15.22;76.74
72262;BME280;60173;52.112;8.648;2023-09-19T07:12:29;99984.75;;;15.14;77.15
72262;BME280;60173;52.112;8.648;2023-09-19T07:14:56;99986.34;;;15.27;77.58
72262;BME280;60173;52.112;8.648;2023-09-19T07:17:22;99991.63;;;15.57;76.43
72262;BME280;60173;52.112;8.648;2023-09-19T07:19:48;99990.91;;;15.23;75.79
72262;BME280;60173;52.112;8.648;2023-09-19T07:22:15;99992.88;;;15.35;76.95
72262;BME280;60173;52.112;8.648;2023-09-19T07:24:41;99997.75;;;15.29;77.26
72262;BME280;60173;52.112;8.648;2023-09-19T07:27:08;100002.41;;;15.04;77.23
72262;BME280;60173;52.112;8.648;2023-09-19T07:29:34;100001.63;;;15.16;77.88
72262;BME280;60173;52.112;8.648;2023-09-19T07:32:00;100010.63;;;15.17;78.30
72262;BME280;60173;52.112;8.648;2023-09-19T07:34:27;100012.59;;;15.41;77.15
72262;BME280;60173;52.112;8.648;2023-09-19T07:36:53;100009.50;;;15.30;77.70
72262;BME280;60173;52.112;8.648;2023-09-19T07:39:20;100016.84;;;14.92;77.59
72262;BME280;60173;52.112;8.648;2023-09-19T07:41:48;100019.06;;;15.24;77.59
72262;BME280;60173;52.112;8.648;2023-09-19T07:44:15;100018.53;;;15.43;78.50
72262;BME280;60173;52.112;8.648;2023-09-19T07:46:42;100014.44;;;15.49;78.24
72262;BME280;60173;52.112;8.648;2023-09-19T07:49:08;100009.06;;;15.65;76.56
72262;BME280;60173;52.112;8.648;2023-09-19T07:51:34;100011.47;;;15.91;76.23
72262;BME280;60173;52.112;8.648;2023-09-19T07:54:01;100024.47;;;16.06;74.98
72262;BME280;60173;52.112;8.648;2023-09-19T07:56:27;100009.84;;;16.14;74.98
72262;BME280;60173;52.112;8.648;2023-09-19T07:58:54;100003.84;;;16.24;75.22
72262;BME280;60173;52.112;8.648;2023-09-19T08:01:20;99999.28;;;16.28;74.43
72262;BME280;60173;52.112;8.648;2023-09-19T08:03:47;100008.00;;;16.18;74.57
72262;BME280;60173;52.112;8.648;2023-09-19T08:06:14;99998.88;;;16.14;75.38
72262;BME280;60173;52.112;8.648;2023-09-19T08:08:40;100001.75;;;15.93;74.58
72262;BME280;60173;52.112;8.648;2023-09-19T08:11:06;99996.84;;;15.99;74.74
72262;BME280;60173;52.112;8.648;2023-09-19T08:13:33;100001.63;;;16.14;74.46
72262;BME280;60173;52.112;8.648;2023-09-19T08:15:59;99997.75;;;15.91;74.16
72262;BME280;60173;52.112;8.648;2023-09-19T08:18:26;100005.59;;;16.17;74.44
72262;BME280;60173;52.112;8.648;2023-09-19T08:20:53;100002.06;;;16.16;74.28
72262;BME280;60173;52.112;8.648;2023-09-19T08:23:19;100017.31;;;16.30;74.69
72262;BME280;60173;52.112;8.648;2023-09-19T08:25:46;100016.25;;;16.34;73.58
72262;BME280;60173;52.112;8.648;2023-09-19T08:28:13;100007.16;;;16.30;74.13
72262;BME280;60173;52.112;8.648;2023-09-19T08:30:39;100014.25;;;16.19;73.36
72262;BME280;60173;52.112;8.648;2023-09-19T08:33:06;100018.13;;;16.58;72.74
72262;BME280;60173;52.112;8.648;2023-09-19T08:35:33;100019.66;;;16.71;72.80
72262;BME280;60173;52.112;8.648;2023-09-19T08:37:59;100024.03;;;16.72;72.25
72262;BME280;60173;52.112;8.648;2023-09-19T08:40:26;100026.28;;;16.83;72.22
72262;BME280;60173;52.112;8.648;2023-09-19T08:42:53;100031.69;;;16.95;71.61
72262;BME280;60173;52.112;8.648;2023-09-19T08:45:21;100030.91;;;16.94;71.86
72262;BME280;60173;52.112;8.648;2023-09-19T08:50:33;100021.94;;;16.82;71.72
72262;BME280;60173;52.112;8.648;2023-09-19T08:53:10;100033.09;;;16.61;72.02
72262;BME280;60173;52.112;8.648;2023-09-19T08:55:37;100029.69;;;17.24;71.42
72262;BME280;60173;52.112;8.648;2023-09-19T08:58:10;100029.31;;;16.93;71.83
72262;BME280;60173;52.112;8.648;2023-09-19T09:00:37;100034.66;;;17.18;71.69
72262;BME280;60173;52.112;8.648;2023-09-19T09:03:04;100025.22;;;16.87;72.28
72262;BME280;60173;52.112;8.648;2023-09-19T09:05:32;100039.25;;;16.98;71.64
72262;BME280;60173;52.112;8.648;2023-09-19T09:08:01;100033.03;;;17.65;70.55
72262;BME280;60173;52.112;8.648;2023-09-19T09:10:28;100043.25;;;17.48;69.66
72262;BME280;60173;52.112;8.648;2023-09-19T09:12:55;100035.72;;;17.45;70.24
72262;BME280;60173;52.112;8.648;2023-09-19T09:15:23;100045.03;;;17.25;70.49
72262;BME280;60173;52.112;8.648;2023-09-19T09:17:51;100031.66;;;17.39;70.71
72262;BME280;60173;52.112;8.648;2023-09-19T09:20:17;100043.88;;;17.57;69.70
72262;BME280;60173;52.112;8.648;2023-09-19T09:22:54;100041.22;;;17.13;70.83
72262;BME280;60173;52.112;8.648;2023-09-19T09:25:22;100028.63;;;17.44;70.52
72262;BME280;60173;52.112;8.648;2023-09-19T09:28:06;100034.31;;;17.83;70.69
72262;BME280;60173;52.112;8.648;2023-09-19T09:30:34;100031.34;;;18.27;69.03
72262;BME280;60173;52.112;8.648;2023-09-19T09:33:08;100036.09;;;18.11;67.35
72262;BME280;60173;52.112;8.648;2023-09-19T09:35:48;100027.34;;;18.05;66.80
72262;BME280;60173;52.112;8.648;2023-09-19T09:38:15;100026.78;;;18.15;67.78
72262;BME280;60173;52.112;8.648;2023-09-19T09:40:49;100021.97;;;17.77;67.58
72262;BME280;60173;52.112;8.648;2023-09-19T09:43:30;100031.28;;;17.88;68.22
72262;BME280;60173;52.112;8.648;2023-09-19T09:46:14;100034.69;;;18.17;67.78
72262;BME280;60173;52.112;8.648;2023-09-19T09:48:41;100029.97;;;17.82;67.79
72262;BME280;60173;52.112;8.648;2023-09-19T09:51:07;100035.97;;;17.72;69.41
72262;BME280;60173;52.112;8.648;2023-09-19T09:53:34;100020.72;;;17.90;67.94
72262;BME280;60173;52.112;8.648;2023-09-19T09:58:28;100023.59;;;17.78;67.81
72262;BME280;60173;52.112;8.648;2023-09-19T10:00:56;100025.84;;;18.27;67.76
72262;BME280;60173;52.112;8.648;2023-09-19T10:03:33;100027.31;;;18.40;67.04
72262;BME280;60173;52.112;8.648;2023-09-19T10:06:00;100010.28;;;18.54;67.48
72262;BME280;60173;52.112;8.648;2023-09-19T10:08:27;100005.63;;;18.97;65.76
72262;BME280;60173;52.112;8.648;2023-09-19T10:10:53;100015.88;;;18.38;65.49
72262;BME280;60173;52.112;8.648;2023-09-19T10:13:20;100019.19;;;18.28;65.04
72262;BME280;60173;52.112;8.648;2023-09-19T10:15:48;100016.88;;;18.30;65.58
72262;BME280;60173;52.112;8.648;2023-09-19T10:18:15;100016.16;;;18.33;63.83
72262;BME280;60173;52.112;8.648;2023-09-19T10:20:46;100035.47;;;18.37;64.22
72262;BME280;60173;52.112;8.648;2023-09-19T10:23:13;100026.41;;;17.97;64.74
72262;BME280;60173;52.112;8.648;2023-09-19T10:25:41;100024.72;;;17.77;65.94
72262;BME280;60173;52.112;8.648;2023-09-19T10:28:10;100025.25;;;17.67;65.94
72262;BME280;60173;52.112;8.648;2023-09-19T10:30:46;100036.34;;;18.21;65.23
72262;BME280;60173;52.112;8.648;2023-09-19T10:33:14;100020.66;;;18.41;65.00
72262;BME280;60173;52.112;8.648;2023-09-19T10:35:47;100026.03;;;18.34;64.71
72262;BME280;60173;52.112;8.648;2023-09-19T10:38:15;100036.56;;;18.32;62.87
72262;BME280;60173;52.112;8.648;2023-09-19T10:40:48;100037.97;;;18.61;63.75
72262;BME280;60173;52.112;8.648;2023-09-19T10:43:16;100041.53;;;18.81;63.40
72262;BME280;60173;52.112;8.648;2023-09-19T10:45:44;100032.69;;;19.14;63.11
72262;BME280;60173;52.112;8.648;2023-09-19T10:48:11;100033.38;;;19.08;63.21
72262;BME280;60173;52.112;8.648;2023-09-19T10:50:50;100030.31;;;19.13;62.30
72262;BME280;60173;52.112;8.648;2023-09-19T10:53:17;100031.31;;;19.24;62.12
72262;BME280;60173;52.112;8.648;2023-09-19T10:55:51;100035.81;;;19.13;62.08
72262;BME280;60173;52.112;8.648;2023-09-19T10:58:29;100025.13;;;18.88;62.66
72262;BME280;60173;52.112;8.648;2023-09-19T11:00:57;100024.22;;;18.81;64.02
72262;BME280;60173;52.112;8.648;2023-09-19T11:03:24;100029.06;;;18.87;63.68
72262;BME280;60173;52.112;8.648;2023-09-19T11:06:05;100025.50;;;18.67;62.93
72262;BME280;60173;52.112;8.648;2023-09-19T11:08:51;100012.13;;;18.46;63.70
72262;BME280;60173;52.112;8.648;2023-09-19T11:11:50;100012.97;;;18.70;63.82
72262;BME280;60173;52.112;8.648;2023-09-19T11:30:40;100007.91;;;19.87;61.19
72262;BME280;60173;52.112;8.648;2023-09-19T11:33:31;100002.16;;;20.26;61.19
72262;BME280;60173;52.112;8.648;2023-09-19T11:35:59;99995.22;;;20.09;60.37
72262;BME280;60173;52.112;8.648;2023-09-19T11:43:49;99993.06;;;19.95;59.30
72262;BME280;60173;52.112;8.648;2023-09-19T11:46:16;100003.59;;;20.16;59.32
72262;BME280;60173;52.112;8.648;2023-09-19T11:48:43;99991.66;;;19.55;59.66
72262;BME280;60173;52.112;8.648;2023-09-19T11:51:14;99984.09;;;19.49;60.21
72262;BME280;60173;52.112;8.648;2023-09-19T11:53:42;99987.31;;;19.77;60.67
72262;BME280;60173;52.112;8.648;2023-09-19T11:56:09;99990.63;;;19.90;58.78
72262;BME280;60173;52.112;8.648;2023-09-19T11:58:37;99999.09;;;20.35;59.08
72262;BME280;60173;52.112;8.648;2023-09-19T12:01:05;99994.16;;;20.51;58.93
72262;BME280;60173;52.112;8.648;2023-09-19T12:03:32;99993.56;;;20.31;58.12
72262;BME280;60173;52.112;8.648;2023-09-19T12:05:59;100008.94;;;20.02;56.84
72262;BME280;60173;52.112;8.648;2023-09-19T12:08:25;100006.13;;;19.49;58.38
72262;BME280;60173;52.112;8.648;2023-09-19T12:10:52;100005.69;;;19.47;59.96
72262;BME280;60173;52.112;8.648;2023-09-19T12:13:19;100008.31;;;19.62;61.13
72262;BME280;60173;52.112;8.648;2023-09-19T12:15:46;100011.03;;;19.36;59.83
72262;BME280;60173;52.112;8.648;2023-09-19T12:18:29;100004.28;;;19.56;59.64
72262;BME280;60173;52.112;8.648;2023-09-19T12:20:56;100000.34;;;19.80;59.01
72262;BME280;60173;52.112;8.648;2023-09-19T12:23:22;99993.63;;;19.78;58.62
72262;BME280;60173;52.112;8.648;2023-09-19T12:25:49;99992.91;;;19.84;59.49
72262;BME280;60173;52.112;8.648;2023-09-19T12:28:16;99986.03;;;19.98;57.82
72262;BME280;60173;52.112;8.648;2023-09-19T12:30:42;99975.84;;;20.02;57.44
72262;BME280;60173;52.112;8.648;2023-09-19T12:33:18;99979.34;;;19.72;58.25
72262;BME280;60173;52.112;8.648;2023-09-19T12:35:45;99977.66;;;19.91;59.17
72262;BME280;60173;52.112;8.648;2023-09-19T12:38:25;99973.50;;;19.74;60.11
72262;BME280;60173;52.112;8.648;2023-09-19T12:40:52;99981.03;;;19.54;59.46
72262;BME280;60173;52.112;8.648;2023-09-19T12:43:19;99971.84;;;19.69;60.59
72262;BME280;60173;52.112;8.648;2023-09-19T12:45:46;99968.97;;;19.89;59.55
72262;BME280;60173;52.112;8.648;2023-09-19T12:48:19;99969.50;;;19.71;59.58
72262;BME280;60173;52.112;8.648;2023-09-19T12:51:08;99952.75;;;19.57;59.43
72262;BME280;60173;52.112;8.648;2023-09-19T12:53:37;99952.50;;;19.66;58.67
72262;BME280;60173;52.112;8.648;2023-09-19T12:56:04;99960.38;;;19.67;58.83
72262;BME280;60173;52.112;8.648;2023-09-19T12:58:31;99961.72;;;20.07;58.86
72262;BME280;60173;52.112;8.648;2023-09-19T13:00:58;99963.78;;;19.83;57.16
72262;BME280;60173;52.112;8.648;2023-09-19T13:03:26;99951.66;;;19.61;57.91
72262;BME280;60173;52.112;8.648;2023-09-19T13:06:01;99944.31;;;19.99;56.47
72262;BME280;60173;52.112;8.648;2023-09-19T13:08:29;99941.72;;;19.83;55.65
72262;BME280;60173;52.112;8.648;2023-09-19T13:11:06;99948.19;;;19.41;57.38
72262;BME280;60173;52.112;8.648;2023-09-19T13:13:33;99958.47;;;19.45;57.52
72262;BME280;60173;52.112;8.648;2023-09-19T13:16:01;99949.69;;;19.35;57.00
72262;BME280;60173;52.112;8.648;2023-09-19T13:18:28;99947.69;;;19.09;58.29
72262;BME280;60173;52.112;8.648;2023-09-19T13:21:11;99944.00;;;18.79;58.98
72262;BME280;60173;52.112;8.648;2023-09-19T13:23:38;99940.22;;;18.67;59.63
72262;BME280;60173;52.112;8.648;2023-09-19T13:26:05;99942.06;;;18.60;58.92
72262;BME280;60173;52.112;8.648;2023-09-19T13:28:33;99952.19;;;18.56;59.62
72262;BME280;60173;52.112;8.648;2023-09-19T13:31:00;99934.75;;;18.48;60.54
72262;BME280;60173;52.112;8.648;2023-09-19T13:33:27;99947.09;;;18.77;62.21
72262;BME280;60173;52.112;8.648;2023-09-19T13:35:54;99957.09;;;19.08;58.28
72262;BME280;60173;52.112;8.648;2023-09-19T13:38:20;99948.53;;;19.13;59.72
72262;BME280;60173;52.112;8.648;2023-09-19T13:40:46;99944.44;;;19.53;58.95
72262;BME280;60173;52.112;8.648;2023-09-19T13:43:13;99938.69;;;19.92;57.27
72262;BME280;60173;52.112;8.648;2023-09-19T13:45:41;99940.63;;;20.22;58.56
72262;BME280;60173;52.112;8.648;2023-09-19T13:48:07;99951.72;;;20.25;57.13